Time;durP1;ratioP1;P1;durP2;ratioP2;P2;SDS_P1;SDS_P2;PMS_P1;PMS_P2;Temp;Humidity;BMP_temperature;BMP_pressure;BME280_temperature;BME280_humidity;BME280_pressure;Samples;Min_cycle;Max_cycle;Signal;HPM_P1;HPM_P2
2023/03/02 00:01:40;;;;;;;66.68;28.33;;;3.50;67.80;;;;;;9182381;19;20030;-63
2023/03/02 00:04:47;;;;;;;65.82;27.73;;;3.40;67.80;;;;;;9181679;19;20010;-64
2023/03/02 00:07:53;;;;;;;68.20;28.48;;;3.40;67.80;;;;;;9180299;19;20022;-63
2023/03/02 00:11:00;;;;;;;67.72;29.42;;;3.40;67.80;;;;;;9183284;19;20086;-63
2023/03/02 00:14:06;;;;;;;70.75;27.90;;;3.40;67.90;;;;;;9180944;19;20025;-64
2023/03/02 00:17:12;;;;;;;70.72;28.80;;;3.40;67.90;;;;;;9182901;19;20102;-63
2023/03/02 00:20:18;;;;;;;64.47;27.33;;;3.40;67.90;;;;;;9176787;19;20490;-64
2023/03/02 00:23:22;;;;;;;64.10;26.77;;;3.40;68.00;;;;;;9183023;19;20490;-64
2023/03/02 00:26:28;;;;;;;60.72;26.88;;;3.40;68.00;;;;;;9180424;19;20355;-64
2023/03/02 00:29:32;;;;;;;63.58;27.45;;;3.30;68.00;;;;;;9180899;19;20015;-63
2023/03/02 00:32:41;;;;;;;58.38;24.77;;;3.30;68.00;;;;;;9180566;19;20017;-64
2023/03/02 00:35:45;;;;;;;63.63;26.65;;;3.30;68.10;;;;;;9182058;19;20539;-64
2023/03/02 00:38:53;;;;;;;68.63;26.92;;;3.30;68.20;;;;;;9180295;19;20070;-64
2023/03/02 00:41:57;;;;;;;57.95;24.33;;;3.30;68.20;;;;;;9180598;19;20017;-64
2023/03/02 00:45:03;;;;;;;57.28;24.42;;;3.20;68.20;;;;;;9180482;19;20033;-63
2023/03/02 00:48:09;;;;;;;61.95;25.15;;;3.20;68.30;;;;;;9177535;19;20417;-63
2023/03/02 00:51:16;;;;;;;62.50;26.13;;;3.20;68.30;;;;;;9177172;19;20015;-64
2023/03/02 00:54:20;;;;;;;70.43;26.13;;;3.20;68.40;;;;;;9182234;19;20039;-63
2023/03/02 00:57:27;;;;;;;69.53;26.98;;;3.20;68.40;;;;;;9182469;19;20002;-63
2023/03/02 01:00:34;;;;;;;59.58;24.98;;;3.10;68.40;;;;;;9178723;19;20035;-64
2023/03/02 01:03:46;;;;;;;61.58;23.70;;;3.10;68.40;;;;;;9180110;19;20015;-63
2023/03/02 01:06:50;;;;;;;55.22;22.52;;;3.10;68.40;;;;;;9178060;19;20507;-63
2023/03/02 01:09:56;;;;;;;59.88;24.25;;;3.00;68.40;;;;;;9177695;19;20030;-64
2023/03/02 01:13:00;;;;;;;61.17;24.08;;;3.00;68.50;;;;;;9179478;19;20014;-64
2023/03/02 01:16:08;;;;;;;59.50;24.25;;;3.00;68.50;;;;;;9179497;19;20026;-64
2023/03/02 01:19:14;;;;;;;60.15;24.10;;;2.90;68.50;;;;;;9174892;19;20010;-64
2023/03/02 01:22:21;;;;;;;56.50;23.08;;;2.90;68.60;;;;;;9179358;19;20048;-64
2023/03/02 01:25:25;;;;;;;62.30;24.13;;;2.90;68.60;;;;;;9179710;19;20033;-63
2023/03/02 01:28:31;;;;;;;63.70;23.52;;;2.80;68.60;;;;;;9180751;19;20014;-64
2023/03/02 01:31:35;;;;;;;60.08;24.42;;;2.80;68.70;;;;;;9180678;19;20036;-64
2023/03/02 01:34:44;;;;;;;61.45;22.80;;;2.80;68.70;;;;;;9180597;19;20019;-64
2023/03/02 01:37:48;;;;;;;61.08;24.55;;;2.80;68.80;;;;;;9180000;19;20102;-64
2023/03/02 01:40:54;;;;;;;61.25;23.25;;;2.70;68.80;;;;;;9178525;19;20014;-64
2023/03/02 01:43:58;;;;;;;60.70;23.80;;;2.70;68.80;;;;;;9178584;19;20014;-63
2023/03/02 01:47:12;;;;;;;61.17;23.80;;;2.60;68.90;;;;;;9175017;19;20017;-64
2023/03/02 01:50:27;;;;;;;67.28;25.27;;;2.50;68.90;;;;;;9177760;19;20015;-64
2023/03/02 01:53:37;;;;;;;65.15;24.70;;;2.50;69.10;;;;;;9180095;19;20029;-64
2023/03/02 01:56:42;;;;;;;59.47;24.23;;;2.50;69.20;;;;;;9178085;19;20033;-64
2023/03/02 01:59:50;;;;;;;67.55;24.30;;;2.50;69.20;;;;;;9179493;19;20023;-63
2023/03/02 02:02:56;;;;;;;67.30;24.52;;;2.50;69.20;;;;;;9177497;19;20341;-64
2023/03/02 02:06:16;;;;;;;65.00;24.33;;;2.50;69.30;;;;;;9177261;19;20018;-63
2023/03/02 02:09:23;;;;;;;61.88;24.10;;;2.50;69.40;;;;;;9174456;19;20014;-63
2023/03/02 02:12:29;;;;;;;58.13;24.63;;;2.50;69.30;;;;;;9177270;19;20026;-63
2023/03/02 02:15:33;;;;;;;57.88;23.38;;;2.50;69.30;;;;;;9176060;19;20022;-64
2023/03/02 02:18:41;;;;;;;57.58;22.88;;;2.50;69.30;;;;;;9171833;19;20015;-63
2023/03/02 02:21:47;;;;;;;62.42;24.80;;;2.50;69.40;;;;;;9177328;19;20403;-63
2023/03/02 02:24:58;;;;;;;66.75;23.90;;;2.50;69.30;;;;;;9177509;19;20030;-64
2023/03/02 02:28:07;;;;;;;63.40;25.20;;;2.50;69.30;;;;;;9170466;19;20021;-64
2023/03/02 02:31:18;;;;;;;68.35;24.83;;;2.40;69.30;;;;;;9176746;19;20006;-64
2023/03/02 02:34:33;;;;;;;56.30;22.55;;;2.40;69.30;;;;;;9177156;19;20014;-64
2023/03/02 02:37:42;;;;;;;57.80;23.58;;;2.40;69.40;;;;;;9178212;19;20022;-64
2023/03/02 02:40:50;;;;;;;60.22;22.40;;;2.40;69.40;;;;;;9176198;19;20010;-63
2023/03/02 02:44:00;;;;;;;55.50;22.70;;;2.30;69.40;;;;;;9172035;19;20003;-63
2023/03/02 02:47:04;;;;;;;57.20;23.08;;;2.30;69.50;;;;;;9174852;19;20026;-64
2023/03/02 02:50:17;;;;;;;66.63;24.50;;;2.30;69.50;;;;;;9176147;19;20018;-63
2023/03/02 02:53:28;;;;;;;61.83;24.45;;;2.20;69.50;;;;;;9176105;19;20011;-63
2023/03/02 02:56:36;;;;;;;65.18;24.25;;;2.20;69.50;;;;;;9178297;19;20019;-63
2023/03/02 02:59:48;;;;;;;56.63;24.25;;;2.20;69.60;;;;;;9176486;19;20475;-63
2023/03/02 03:02:58;;;;;;;58.83;23.20;;;2.20;69.60;;;;;;9177018;19;20018;-63
2023/03/02 03:06:05;;;;;;;56.88;22.67;;;2.20;69.70;;;;;;9176555;19;20011;-63
2023/03/02 03:09:12;;;;;;;60.50;23.40;;;2.10;69.60;;;;;;9170847;19;20822;-62
2023/03/02 03:12:25;;;;;;;53.53;21.80;;;2.10;69.70;;;;;;9173859;19;20036;-62
2023/03/02 03:15:34;;;;;;;67.90;25.30;;;2.00;69.70;;;;;;9176932;19;20026;-63
2023/03/02 03:18:39;;;;;;;61.08;23.65;;;2.10;69.80;;;;;;9170768;19;20602;-62
2023/03/02 03:21:45;;;;;;;63.03;24.55;;;2.00;69.80;;;;;;9174608;19;20018;-62
2023/03/02 03:24:49;;;;;;;63.60;22.23;;;2.00;69.80;;;;;;9176668;19;20014;-62
2023/03/02 03:27:56;;;;;;;68.03;25.23;;;2.00;69.90;;;;;;9170687;19;20020;-63
2023/03/02 03:31:03;;;;;;;60.88;24.30;;;2.00;69.90;;;;;;9174511;19;20018;-63
2023/03/02 03:34:09;;;;;;;68.93;24.27;;;1.90;69.90;;;;;;9176295;19;20471;-62
2023/03/02 03:37:17;;;;;;;60.70;23.85;;;1.90;70.10;;;;;;9174548;19;20493;-62
2023/03/02 03:40:24;;;;;;;63.17;23.85;;;1.80;70.10;;;;;;9179053;19;20010;-62
2023/03/02 03:43:28;;;;;;;59.08;21.90;;;1.80;70.10;;;;;;9182322;19;20011;-62
2023/03/02 03:46:37;;;;;;;63.33;22.02;;;1.80;70.30;;;;;;9181006;19;20018;-63
2023/03/02 03:49:41;;;;;;;64.75;22.02;;;1.80;70.30;;;;;;9183691;19;20364;-63
2023/03/02 03:52:48;;;;;;;57.72;22.05;;;1.80;70.40;;;;;;9182124;19;20014;-63
2023/03/02 03:55:57;;;;;;;65.13;21.73;;;1.80;70.40;;;;;;9182606;19;20021;-63
2023/03/02 03:59:08;;;;;;;62.35;22.85;;;1.80;70.40;;;;;;9183241;19;20018;-63
2023/03/02 04:02:22;;;;;;;65.97;23.55;;;1.80;70.40;;;;;;9181055;19;20463;-63
2023/03/02 04:05:29;;;;;;;62.00;23.23;;;1.80;70.40;;;;;;9183085;19;20029;-63
2023/03/02 04:08:36;;;;;;;63.28;24.30;;;1.80;70.40;;;;;;9178735;19;20014;-63
2023/03/02 04:11:44;;;;;;;61.40;22.48;;;1.80;70.40;;;;;;9181439;19;20471;-63
2023/03/02 04:14:49;;;;;;;71.70;24.05;;;1.80;70.50;;;;;;9181296;19;20015;-63
2023/03/02 04:17:57;;;;;;;59.88;23.17;;;1.70;70.60;;;;;;9181006;19;20774;-63
2023/03/02 04:21:01;;;;;;;65.35;23.75;;;1.70;70.60;;;;;;9178225;19;20014;-63
2023/03/02 04:24:09;;;;;;;64.60;22.60;;;1.70;71.10;;;;;;9182156;19;20011;-63
2023/03/02 04:27:13;;;;;;;73.32;23.85;;;1.70;70.60;;;;;;9178761;19;20014;-63
2023/03/02 04:30:23;;;;;;;66.78;23.35;;;1.70;70.70;;;;;;9180377;19;20011;-63
2023/03/02 04:33:29;;;;;;;66.18;24.20;;;1.70;70.70;;;;;;9180944;19;20011;-63
2023/03/02 04:36:38;;;;;;;68.95;24.42;;;1.70;70.70;;;;;;9179859;19;20007;-63
2023/03/02 04:39:48;;;;;;;70.68;24.45;;;1.70;70.80;;;;;;9180519;19;20021;-63
2023/03/02 04:42:54;;;;;;;72.05;23.70;;;1.70;70.80;;;;;;9182148;19;20129;-63
2023/03/02 04:45:59;;;;;;;83.53;25.67;;;1.70;70.90;;;;;;9181640;19;20027;-63
2023/03/02 04:49:07;;;;;;;71.72;23.77;;;1.60;70.90;;;;;;9180725;19;20468;-63
2023/03/02 04:52:11;;;;;;;76.60;23.17;;;1.70;71.10;;;;;;9179421;19;20402;-63
2023/03/02 04:55:21;;;;;;;66.20;22.52;;;1.60;71.00;;;;;;9179688;19;20013;-63
2023/03/02 04:58:25;;;;;;;74.90;23.50;;;1.70;71.20;;;;;;9181254;19;21509;-65
2023/03/02 05:01:31;;;;;;;68.43;22.80;;;1.70;71.20;;;;;;9180116;19;20025;-65
2023/03/02 05:04:39;;;;;;;64.57;21.88;;;1.60;71.10;;;;;;9179557;19;20010;-65
2023/03/02 05:07:45;;;;;;;71.70;23.20;;;1.70;71.30;;;;;;9177601;19;20384;-65
2023/03/02 05:10:49;;;;;;;78.30;23.77;;;1.60;71.20;;;;;;9178712;19;20468;-66
2023/03/02 05:13:58;;;;;;;66.93;23.65;;;1.70;71.30;;;;;;9179212;19;20021;-65
2023/03/02 05:17:01;;;;;;;72.25;23.50;;;1.60;71.30;;;;;;9179651;19;20110;-65
2023/03/02 05:20:13;;;;;;;74.93;23.45;;;1.70;71.90;;;;;;9174163;19;20021;-65
2023/03/02 05:23:22;;;;;;;73.93;23.92;;;1.70;71.50;;;;;;9180749;19;20007;-66
2023/03/02 05:26:31;;;;;;;70.85;21.42;;;1.70;71.50;;;;;;9178066;19;20010;-65
2023/03/02 05:29:35;;;;;;;61.42;21.95;;;1.70;72.00;;;;;;9178668;19;20006;-65
2023/03/02 05:32:41;;;;;;;76.40;23.10;;;1.70;71.40;;;;;;9176725;19;20015;-65
2023/03/02 05:35:48;;;;;;;66.70;21.98;;;1.70;71.50;;;;;;9178692;19;20014;-65
2023/03/02 05:38:54;;;;;;;58.45;21.45;;;1.70;71.50;;;;;;9180626;19;20051;-66
2023/03/02 05:41:58;;;;;;;68.07;21.60;;;1.70;71.50;;;;;;9180112;19;20018;-65
2023/03/02 05:45:05;;;;;;;70.68;22.63;;;1.70;71.50;;;;;;9178751;19;20010;-65
2023/03/02 05:48:09;;;;;;;71.13;23.02;;;1.80;71.50;;;;;;9175925;19;20033;-65
2023/03/02 05:51:17;;;;;;;72.88;22.85;;;1.80;71.50;;;;;;9178096;19;20030;-65
2023/03/02 05:54:21;;;;;;;80.28;24.88;;;1.80;71.50;;;;;;9177783;19;20010;-65
2023/03/02 05:57:28;;;;;;;80.03;24.33;;;1.80;71.60;;;;;;9180090;19;20015;-66
2023/03/02 06:00:31;;;;;;;78.53;25.23;;;1.80;71.60;;;;;;9176770;19;20022;-65
2023/03/02 06:03:38;;;;;;;75.40;23.73;;;1.80;71.60;;;;;;9177174;19;20097;-66
2023/03/02 06:06:44;;;;;;;83.07;24.08;;;1.80;71.70;;;;;;9178274;19;20703;-66
2023/03/02 06:09:50;;;;;;;90.85;26.15;;;1.80;71.80;;;;;;9173941;19;20046;-65
2023/03/02 06:12:54;;;;;;;75.88;22.90;;;1.80;71.70;;;;;;9179412;19;20474;-65
2023/03/02 06:16:00;;;;;;;71.18;24.42;;;1.80;71.80;;;;;;9178974;19;20825;-65
2023/03/02 06:19:04;;;;;;;72.82;22.75;;;1.80;71.90;;;;;;9172310;19;20018;-65
2023/03/02 06:22:12;;;;;;;79.30;23.90;;;1.80;71.90;;;;;;9178767;19;20025;-65
2023/03/02 06:25:18;;;;;;;74.38;23.38;;;1.80;72.00;;;;;;9175581;19;20026;-65
2023/03/02 06:28:24;;;;;;;81.05;25.88;;;1.80;72.00;;;;;;9173137;19;20337;-65
2023/03/02 06:31:29;;;;;;;75.80;24.15;;;1.80;72.00;;;;;;9176423;19;20014;-65
2023/03/02 06:34:36;;;;;;;78.72;25.10;;;1.80;72.10;;;;;;9176727;19;20018;-65
2023/03/02 06:37:42;;;;;;;72.03;23.67;;;1.80;72.10;;;;;;9178122;19;20014;-65
2023/03/02 06:40:49;;;;;;;70.72;23.85;;;1.90;72.20;;;;;;9178335;19;20014;-69
2023/03/02 06:43:53;;;;;;;69.47;23.73;;;1.90;72.20;;;;;;9176752;19;20487;-65
2023/03/02 06:46:59;;;;;;;70.63;23.83;;;1.90;72.20;;;;;;9176600;19;20029;-65
2023/03/02 06:50:04;;;;;;;66.70;23.10;;;1.90;72.30;;;;;;9177733;19;20039;-65
2023/03/02 06:53:12;;;;;;;65.15;22.13;;;1.90;72.30;;;;;;9177626;19;20621;-65
2023/03/02 06:56:16;;;;;;;67.07;22.65;;;1.90;72.40;;;;;;9168879;19;20022;-65
2023/03/02 06:59:21;;;;;;;61.63;21.92;;;1.90;72.40;;;;;;9175951;19;20018;-65
2023/03/02 07:02:25;;;;;;;60.20;21.38;;;1.90;72.40;;;;;;9174445;19;20042;-65
2023/03/02 07:05:32;;;;;;;56.05;19.42;;;1.90;72.50;;;;;;9173339;19;20015;-65
2023/03/02 07:08:38;;;;;;;59.00;21.60;;;1.90;72.50;;;;;;9174139;19;20018;-65
2023/03/02 07:11:45;;;;;;;69.13;23.40;;;2.00;72.60;;;;;;9174949;19;20006;-65
2023/03/02 07:14:49;;;;;;;63.90;21.50;;;2.00;72.70;;;;;;9178559;19;20488;-66
2023/03/02 07:17:55;;;;;;;64.88;21.50;;;2.00;72.70;;;;;;9182988;19;20025;-65
2023/03/02 07:20:59;;;;;;;65.53;22.52;;;2.00;72.70;;;;;;9171102;19;20936;-65
2023/03/02 07:24:08;;;;;;;68.78;22.15;;;2.00;72.80;;;;;;9172162;19;20007;-65
2023/03/02 07:27:11;;;;;;;67.40;22.90;;;2.00;72.80;;;;;;9173120;19;20104;-65
2023/03/02 07:30:20;;;;;;;71.70;22.90;;;2.10;72.90;;;;;;9175541;19;20010;-65
2023/03/02 07:33:24;;;;;;;77.95;23.90;;;2.10;72.90;;;;;;9171839;19;20018;-65
2023/03/02 07:36:31;;;;;;;67.75;23.63;;;2.10;72.90;;;;;;9172031;19;20030;-65
2023/03/02 07:39:37;;;;;;;72.38;23.13;;;2.20;73.00;;;;;;9175059;19;20014;-65
2023/03/02 07:42:43;;;;;;;68.07;22.48;;;2.20;73.10;;;;;;9175861;19;20014;-66
2023/03/02 07:45:50;;;;;;;64.13;22.52;;;2.20;73.10;;;;;;9171289;19;20010;-66
2023/03/02 07:48:57;;;;;;;60.60;22.17;;;2.30;73.10;;;;;;9173048;19;20021;-65
2023/03/02 07:52:02;;;;;;;57.72;23.27;;;2.30;73.10;;;;;;9171168;19;20032;-66
2023/03/02 07:55:11;;;;;;;70.65;23.42;;;2.40;73.20;;;;;;9172052;19;20021;-66
2023/03/02 07:58:15;;;;;;;59.38;22.38;;;2.30;73.10;;;;;;9173682;19;22006;-65
2023/03/02 08:01:21;;;;;;;64.97;24.83;;;2.40;73.20;;;;;;9165378;19;20816;-66
2023/03/02 08:04:25;;;;;;;58.00;22.75;;;2.30;73.20;;;;;;9160639;19;20022;-66
2023/03/02 08:07:31;;;;;;;63.85;23.70;;;2.40;73.30;;;;;;9164408;19;20037;-66
2023/03/02 08:10:37;;;;;;;52.08;22.33;;;2.40;73.30;;;;;;9163367;19;20376;-65
2023/03/02 08:13:44;;;;;;;60.67;22.27;;;2.50;73.50;;;;;;9165941;19;20022;-65
2023/03/02 08:16:48;;;;;;;69.45;23.70;;;2.50;73.50;;;;;;9164798;19;20018;-65
2023/03/02 08:19:54;;;;;;;71.68;22.95;;;2.50;73.50;;;;;;9158938;19;20014;-65
2023/03/02 08:22:58;;;;;;;74.45;25.15;;;2.60;73.60;;;;;;9168192;19;20379;-64
2023/03/02 08:26:06;;;;;;;73.13;23.75;;;2.60;73.70;;;;;;9162078;19;20018;-64
2023/03/02 08:29:10;;;;;;;69.97;23.92;;;2.70;73.70;;;;;;9165878;19;20440;-65
2023/03/02 08:32:16;;;;;;;76.32;23.90;;;2.70;73.70;;;;;;9173038;19;21818;-66
2023/03/02 08:35:21;;;;;;;67.13;22.13;;;2.80;73.70;;;;;;9170686;19;20322;-65
2023/03/02 08:38:27;;;;;;;70.55;23.17;;;2.80;73.70;;;;;;9173895;19;20010;-65
2023/03/02 08:41:34;;;;;;;66.90;23.80;;;2.80;73.70;;;;;;9176275;19;20082;-65
2023/03/02 08:44:40;;;;;;;60.75;23.90;;;2.90;73.80;;;;;;9180231;19;20021;-65
2023/03/02 08:47:44;;;;;;;70.80;24.13;;;2.90;73.80;;;;;;9180048;19;20097;-65
2023/03/02 08:50:57;;;;;;;62.20;21.42;;;3.00;73.90;;;;;;9180334;19;20015;-65
2023/03/02 08:54:01;;;;;;;64.78;23.05;;;3.00;73.90;;;;;;9180468;19;20018;-66
2023/03/02 08:57:12;;;;;;;55.53;21.48;;;3.10;73.90;;;;;;9181772;19;20388;-65
2023/03/02 09:00:17;;;;;;;54.47;21.35;;;3.10;74.00;;;;;;9176675;19;20055;-65
2023/03/02 09:03:23;;;;;;;69.60;22.20;;;3.20;74.00;;;;;;9171722;19;20011;-65
2023/03/02 09:06:28;;;;;;;63.10;22.73;;;3.20;73.90;;;;;;9164898;19;20648;-64
2023/03/02 09:09:34;;;;;;;59.42;21.75;;;3.20;73.80;;;;;;9167118;19;20018;-65
2023/03/02 09:12:40;;;;;;;68.88;21.77;;;3.20;73.90;;;;;;9170040;19;20022;-65
2023/03/02 09:15:46;;;;;;;63.72;21.20;;;3.20;73.90;;;;;;9169512;19;20014;-65
2023/03/02 09:18:50;;;;;;;58.80;20.63;;;3.30;74.00;;;;;;9160651;19;20022;-65
2023/03/02 09:21:56;;;;;;;60.55;21.10;;;3.30;73.90;;;;;;9166678;19;20018;-65
2023/03/02 09:25:00;;;;;;;;;;;3.30;74.00;;;;;;9167062;19;20022;-65
2023/03/02 09:28:08;;;;;;;63.60;22.70;;;3.30;74.10;;;;;;9167114;19;20727;-65
2023/03/02 09:31:13;;;;;;;71.32;23.90;;;3.40;74.10;;;;;;9172751;19;20014;-66
2023/03/02 09:34:19;;;;;;;74.15;24.52;;;3.50;74.30;;;;;;9168497;19;20517;-65
2023/03/02 09:37:23;;;;;;;69.10;23.65;;;3.70;74.60;;;;;;9175822;19;20011;-65
2023/03/02 09:40:29;;;;;;;71.28;23.52;;;3.90;74.80;;;;;;9179174;19;20010;-66
2023/03/02 09:43:46;;;;;;;62.35;22.50;;;4.10;75.40;;;;;;9179833;19;20010;-66
2023/03/02 09:46:54;;;;;;;56.58;21.65;;;4.30;74.80;;;;;;9170148;19;20590;-65
2023/03/02 09:50:06;;;;;;;61.45;21.15;;;4.40;74.50;;;;;;9174910;19;20057;-65
2023/03/02 09:53:36;;;;;;;53.33;20.30;;;4.60;74.50;;;;;;9175735;19;20026;-66
2023/03/02 09:56:44;;;;;;;54.83;20.75;;;4.70;74.40;;;;;;9176372;19;20020;-66
2023/03/02 09:59:58;;;;;;;56.38;20.10;;;4.90;74.40;;;;;;9175215;19;20010;-66
2023/03/02 10:03:19;;;;;;;59.08;21.00;;;5.00;75.10;;;;;;9176690;19;20031;-66
2023/03/02 10:06:25;;;;;;;49.55;19.20;;;5.20;74.50;;;;;;9176368;19;20026;-66
2023/03/02 10:09:29;;;;;;;47.25;18.02;;;5.40;74.50;;;;;;9173281;19;20090;-66
2023/03/02 10:12:51;;;;;;;40.80;18.08;;;5.50;74.40;;;;;;9168352;19;20011;-66
2023/03/02 10:16:13;;;;;;;40.08;17.92;;;5.70;74.40;;;;;;9174396;19;20397;-68
2023/03/02 10:19:26;;;;;;;31.55;12.85;;;5.90;74.30;;;;;;9178122;19;20025;-68
2023/03/02 10:22:36;;;;;;;43.73;18.20;;;6.10;74.20;;;;;;9173352;19;20010;-68
2023/03/02 10:25:49;;;;;;;44.80;18.17;;;6.30;74.10;;;;;;9175494;19;20026;-66
2023/03/02 10:29:01;;;;;;;47.28;19.17;;;6.40;74.10;;;;;;9170137;19;20015;-67
2023/03/02 10:32:20;;;;;;;40.47;16.90;;;6.60;74.00;;;;;;9175912;19;20467;-66
2023/03/02 10:35:27;;;;;;;47.15;18.63;;;6.80;73.90;;;;;;9178782;19;20360;-66
2023/03/02 10:38:34;;;;;;;42.42;17.73;;;6.90;73.80;;;;;;9175189;19;20025;-66
2023/03/02 10:41:44;;;;;;;41.08;17.77;;;7.00;73.60;;;;;;9175599;19;20478;-66
2023/03/02 10:44:54;;;;;;;39.63;18.02;;;7.20;73.60;;;;;;9175074;19;20480;-66
2023/03/02 10:48:05;;;;;;;39.75;17.25;;;7.30;73.50;;;;;;9173555;19;20030;-66
2023/03/02 10:51:23;;;;;;;40.20;18.27;;;7.50;73.50;;;;;;9171378;19;20015;-66
2023/03/02 10:54:27;;;;;;;37.30;16.30;;;7.60;73.40;;;;;;9175743;19;20015;-66
2023/03/02 10:57:38;;;;;;;42.88;18.88;;;7.70;73.30;;;;;;9174877;19;20018;-66
2023/03/02 11:00:42;;;;;;;38.92;18.10;;;7.90;73.30;;;;;;9174056;19;20063;-66
2023/03/02 11:03:59;;;;;;;38.63;17.15;;;8.00;73.80;;;;;;9174191;19;20033;-66
2023/03/02 11:07:11;;;;;;;36.55;17.33;;;8.20;73.20;;;;;;9174557;19;20049;-66
2023/03/02 11:10:20;;;;;;;40.28;18.02;;;8.30;73.60;;;;;;9171058;19;20022;-66
2023/03/02 11:13:28;;;;;;;36.47;17.05;;;8.50;73.00;;;;;;9166136;19;20015;-67
2023/03/02 11:16:34;;;;;;;35.58;15.95;;;8.60;72.90;;;;;;9168631;19;20017;-66
2023/03/02 11:19:42;;;;;;;31.45;15.63;;;8.70;72.70;;;;;;9170935;19;20023;-66
2023/03/02 11:22:55;;;;;;;35.28;15.70;;;8.90;72.70;;;;;;9161076;19;20009;-67
2023/03/02 11:26:04;;;;;;;35.70;16.27;;;9.00;72.60;;;;;;9163848;19;20027;-66
2023/03/02 11:29:18;;;;;;;34.10;16.17;;;9.10;72.50;;;;;;9160174;19;20026;-67
2023/03/02 11:32:33;;;;;;;40.05;16.42;;;9.20;72.40;;;;;;9155051;19;20522;-67
2023/03/02 11:35:46;;;;;;;35.83;16.27;;;9.30;72.20;;;;;;9154746;19;20022;-67
2023/03/02 11:38:55;;;;;;;35.72;16.02;;;9.40;72.10;;;;;;9166331;19;20364;-67
2023/03/02 11:42:01;;;;;;;38.97;17.58;;;9.40;72.00;;;;;;9168698;19;20002;-67
2023/03/02 11:45:16;;;;;;;;;;;9.50;72.00;;;;;;9171641;19;20007;-67
2023/03/02 11:48:28;;;;;;;32.13;15.38;;;9.50;71.90;;;;;;9160462;19;20344;-67
2023/03/02 11:51:37;;;;;;;36.38;15.82;;;9.60;71.80;;;;;;9165901;19;20015;-67
2023/03/02 11:54:58;;;;;;;35.70;15.70;;;9.70;71.70;;;;;;9166285;19;20018;-65
2023/03/02 11:58:04;;;;;;;34.65;16.17;;;9.70;71.70;;;;;;9167355;19;20010;-65
2023/03/02 12:01:17;;;;;;;41.47;16.83;;;9.80;71.50;;;;;;9171908;19;20017;-65
2023/03/02 12:04:31;;;;;;;30.08;14.63;;;9.80;71.30;;;;;;9175761;19;20015;-65
2023/03/02 12:07:39;;;;;;;35.47;16.10;;;9.90;71.30;;;;;;9173414;19;20034;-64
2023/03/02 12:10:56;;;;;;;35.85;15.43;;;9.90;71.30;;;;;;9174860;19;20026;-64
2023/03/02 12:14:04;;;;;;;32.53;15.00;;;10.00;71.20;;;;;;9173732;19;20025;-64
2023/03/02 12:17:21;;;;;;;31.67;14.38;;;10.10;71.20;;;;;;9181634;19;20498;-64
2023/03/02 12:20:29;;;;;;;33.13;15.80;;;10.10;71.00;;;;;;9182118;19;20359;-64
2023/03/02 12:23:43;;;;;;;35.22;14.55;;;10.20;71.10;;;;;;9180302;19;20011;-64
2023/03/02 12:26:49;;;;;;;28.92;14.63;;;10.20;70.90;;;;;;9179531;19;20514;-65
2023/03/02 12:30:09;;;;;;;31.27;15.48;;;10.20;70.80;;;;;;9177335;19;20018;-65
2023/03/02 12:33:21;;;;;;;30.88;15.02;;;10.30;70.70;;;;;;9179774;19;20015;-64
2023/03/02 12:36:30;;;;;;;32.20;15.57;;;10.30;70.60;;;;;;9180279;19;20638;-64
2023/03/02 12:40:09;;;;;;;27.77;15.55;;;10.30;70.50;;;;;;9180252;19;20715;-64
2023/03/02 12:43:24;;;;;;;30.80;14.85;;;10.30;70.30;;;;;;9179732;19;20111;-64
2023/03/02 12:46:32;;;;;;;35.17;15.27;;;10.30;70.40;;;;;;9179653;19;20022;-64
2023/03/02 12:49:48;;;;;;;29.85;14.75;;;10.30;70.30;;;;;;9177089;19;20071;-63
2023/03/02 12:53:01;;;;;;;34.60;15.48;;;10.30;70.40;;;;;;9179906;19;20022;-64
2023/03/02 12:56:08;;;;;;;33.50;16.08;;;10.30;70.30;;;;;;9178798;19;20037;-63
2023/03/02 12:59:24;;;;;;;33.85;16.10;;;10.30;70.30;;;;;;9178481;19;20018;-67
2023/03/02 13:02:30;;;;;;;35.00;16.40;;;10.30;70.30;;;;;;9179521;19;20086;-67
2023/03/02 13:05:37;;;;;;;35.10;16.75;;;10.30;70.30;;;;;;9179016;19;20017;-68
2023/03/02 13:08:44;;;;;;;29.85;15.65;;;10.20;70.10;;;;;;9175415;19;20024;-68
2023/03/02 13:11:54;;;;;;;32.03;15.45;;;10.20;70.00;;;;;;9176309;19;20014;-68
2023/03/02 13:15:00;;;;;;;31.65;15.10;;;10.10;69.90;;;;;;9171085;19;20029;-68
2023/03/02 13:18:06;;;;;;;24.83;13.65;;;10.00;69.80;;;;;;9178373;19;20026;-68
2023/03/02 13:21:15;;;;;;;29.77;14.73;;;9.90;69.90;;;;;;9176018;19;20025;-68
2023/03/02 13:24:32;;;;;;;30.92;14.65;;;9.80;69.80;;;;;;9177643;19;20014;-68
2023/03/02 13:27:38;;;;;;;37.70;15.52;;;9.70;69.70;;;;;;9178344;19;20014;-68
2023/03/02 13:30:46;;;;;;;28.48;13.55;;;9.60;69.90;;;;;;9178129;19;20010;-68
2023/03/02 13:33:52;;;;;;;25.67;13.10;;;9.50;69.90;;;;;;9178125;19;20483;-68
2023/03/02 13:36:58;;;;;;;29.15;14.23;;;9.40;69.80;;;;;;9178380;19;20114;-68
2023/03/02 13:40:05;;;;;;;29.88;13.38;;;9.30;69.90;;;;;;9177603;19;20053;-67
2023/03/02 13:43:25;;;;;;;24.23;12.98;;;9.20;69.80;;;;;;9177828;19;20025;-67
2023/03/02 13:46:34;;;;;;;30.80;13.90;;;9.10;69.80;;;;;;9176191;19;20010;-67
2023/03/02 13:49:42;;;;;;;23.70;11.35;;;9.00;69.90;;;;;;9175413;19;20022;-68
2023/03/02 13:52:49;;;;;;;23.27;11.25;;;9.00;70.00;;;;;;9178226;19;20070;-68
2023/03/02 13:55:55;;;;;;;28.45;12.18;;;8.90;70.00;;;;;;9177577;19;20029;-67
2023/03/02 13:59:02;;;;;;;25.42;12.60;;;8.80;70.00;;;;;;9179073;19;20483;-68
2023/03/02 14:02:25;;;;;;;20.85;11.45;;;8.80;70.00;;;;;;9177123;19;20336;-68
2023/03/02 14:05:31;;;;;;;21.83;11.77;;;8.60;70.00;;;;;;9177342;19;20019;-67
2023/03/02 14:08:38;;;;;;;24.90;12.07;;;8.60;70.00;;;;;;9172717;19;20010;-67
2023/03/02 14:11:43;;;;;;;;;;;8.60;70.10;;;;;;9172617;19;20022;-68
2023/03/02 14:14:53;;;;;;;21.75;10.82;;;8.50;70.10;;;;;;9171797;19;19918;-68
2023/03/02 14:17:57;;;;;;;22.73;11.40;;;8.50;70.10;;;;;;9176672;19;20045;-67
2023/03/02 14:21:03;;;;;;;23.70;11.40;;;8.50;70.10;;;;;;9176423;19;20495;-69
2023/03/02 14:24:24;;;;;;;32.33;12.50;;;8.40;70.10;;;;;;9170705;19;20355;-65
2023/03/02 14:27:32;;;;;;;25.40;11.80;;;8.40;70.10;;;;;;9171033;19;20014;-63
2023/03/02 14:30:38;;;;;;;18.58;10.13;;;8.40;70.10;;;;;;9167620;19;20057;-63
2023/03/02 14:33:44;;;;;;;21.48;9.63;;;8.40;70.10;;;;;;9170071;19;20014;-63
2023/03/02 14:36:49;;;;;;;;;;;8.40;70.10;;;;;;9171177;19;20334;-62
2023/03/02 14:39:55;;;;;;;20.23;9.95;;;8.40;70.10;;;;;;9168290;19;19919;-62
2023/03/02 14:42:59;;;;;;;19.38;10.45;;;8.40;70.10;;;;;;9165105;19;20074;-63
2023/03/02 14:46:08;;;;;;;20.15;11.00;;;8.40;70.10;;;;;;9174145;19;20485;-62
2023/03/02 14:49:12;;;;;;;20.20;10.55;;;8.40;70.10;;;;;;9173088;19;20029;-63
2023/03/02 14:52:23;;;;;;;21.58;12.27;;;8.40;70.10;;;;;;9175816;19;20022;-63
2023/03/02 14:55:29;;;;;;;22.05;10.85;;;8.40;70.20;;;;;;9175426;19;20035;-64
2023/03/02 14:58:36;;;;;;;22.73;11.00;;;8.40;70.20;;;;;;9173575;19;20029;-63
2023/03/02 15:01:43;;;;;;;21.50;11.13;;;8.40;70.20;;;;;;9172904;19;20007;-63
2023/03/02 15:04:51;;;;;;;21.90;11.35;;;8.40;70.10;;;;;;9176221;19;20011;-63
2023/03/02 15:07:56;;;;;;;20.70;11.18;;;8.40;70.70;;;;;;9171067;19;20015;-63
2023/03/02 15:11:04;;;;;;;22.02;10.95;;;8.40;70.00;;;;;;9175273;19;20014;-67
2023/03/02 15:14:08;;;;;;;23.65;12.57;;;8.50;70.10;;;;;;9170546;19;20494;-68
2023/03/02 15:17:16;;;;;;;22.40;12.75;;;8.50;70.20;;;;;;9174915;19;20003;-67
2023/03/02 15:20:20;;;;;;;24.83;13.43;;;8.50;70.20;;;;;;9174139;19;20018;-69
2023/03/02 15:23:26;;;;;;;23.58;12.80;;;8.40;70.20;;;;;;9175137;19;20018;-68
2023/03/02 15:26:32;;;;;;;24.33;12.88;;;8.40;70.20;;;;;;9173732;19;20017;-67
2023/03/02 15:29:39;;;;;;;25.33;12.82;;;8.50;70.30;;;;;;9174158;19;20029;-67
2023/03/02 15:32:45;;;;;;;24.60;13.20;;;8.40;70.30;;;;;;9176245;19;20518;-69
2023/03/02 15:35:53;;;;;;;24.35;13.10;;;8.40;70.30;;;;;;9176894;19;20011;-68
2023/03/02 15:38:59;;;;;;;24.95;14.70;;;8.40;70.40;;;;;;9183046;19;20028;-67
2023/03/02 15:42:05;;;;;;;25.80;13.82;;;8.40;70.40;;;;;;9182784;19;20014;-68
2023/03/02 15:45:10;;;;;;;27.33;14.30;;;8.30;70.40;;;;;;9184247;19;20011;-69
2023/03/02 15:48:18;;;;;;;26.52;14.02;;;8.30;70.40;;;;;;9183291;19;20026;-68
2023/03/02 15:51:23;;;;;;;23.58;13.70;;;8.30;70.40;;;;;;9183912;19;20113;-68
2023/03/02 15:54:30;;;;;;;26.60;14.18;;;8.20;70.50;;;;;;9183795;19;20022;-67
2023/03/02 15:57:38;;;;;;;24.15;14.02;;;8.10;70.40;;;;;;9181928;19;20022;-69
2023/03/02 16:00:44;;;;;;;28.30;14.10;;;8.10;70.50;;;;;;9181848;19;20339;-68
2023/03/02 16:03:50;;;;;;;28.00;13.65;;;8.00;70.60;;;;;;9180121;19;20014;-67
2023/03/02 16:06:57;;;;;;;22.60;13.35;;;8.00;70.60;;;;;;9175067;19;20014;-68